Time;durP1;ratioP1;P1;durP2;ratioP2;P2;SDS_P1;SDS_P2;PMS_P1;PMS_P2;Temp;Humidity;BMP_temperature;BMP_pressure;BME280_temperature;BME280_humidity;BME280_pressure;Samples;Min_cycle;Max_cycle;Signal;HPM_P1;HPM_P2
2022/01/21 00:00:54;;;;;;;10.88;2.25;;;;;;;0.63;100.00;103326.44;4993267;28;20439;-70
2022/01/21 00:03:20;;;;;;;15.60;2.78;;;;;;;0.67;100.00;103316.75;4999746;28;20493;-70
2022/01/21 00:05:45;;;;;;;8.35;2.17;;;;;;;0.76;100.00;103329.16;5000782;28;20387;-70
2022/01/21 00:08:10;;;;;;;5.65;2.20;;;;;;;0.66;100.00;103328.25;5011911;28;20029;-72
2022/01/21 00:10:36;;;;;;;6.78;1.92;;;;;;;0.67;100.00;103337.91;5012589;28;20506;-71
2022/01/21 00:13:01;;;;;;;14.02;3.45;;;;;;;0.64;100.00;103333.50;5011605;28;20028;-71
2022/01/21 00:15:27;;;;;;;13.77;2.33;;;;;;;0.74;100.00;103337.06;5009622;28;20030;-71
2022/01/21 00:17:52;;;;;;;10.40;2.55;;;;;;;0.67;100.00;103330.88;5002242;28;20032;-71
2022/01/21 00:31:13;;;;;;;14.88;2.15;;;;;;;0.56;100.00;103311.44;5013643;28;20072;-71
2022/01/21 00:33:38;;;;;;;9.82;1.85;;;;;;;0.38;100.00;103313.13;4998675;28;20523;-71
2022/01/21 00:36:06;;;;;;;7.97;2.03;;;;;;;0.41;100.00;103328.09;4999810;28;20072;-71
2022/01/21 00:38:32;;;;;;;9.27;2.70;;;;;;;0.33;100.00;103327.22;5019605;28;20083;-71
2022/01/21 00:41:00;;;;;;;9.95;2.50;;;;;;;0.19;100.00;103332.41;5010607;28;20223;-71
2022/01/21 00:43:43;;;;;;;6.63;2.17;;;;;;;0.16;100.00;103322.69;5013636;28;20040;-71
2022/01/21 00:46:09;;;;;;;16.02;3.20;;;;;;;0.21;100.00;103330.66;5014281;28;20176;-71
2022/01/21 00:48:34;;;;;;;16.75;2.85;;;;;;;0.14;100.00;103322.69;5012147;28;20038;-71
2022/01/21 00:51:00;;;;;;;11.80;2.67;;;;;;;0.06;100.00;103319.13;5013518;28;20037;-71
2022/01/21 00:53:25;;;;;;;14.82;2.65;;;;;;;-0.06;100.00;103326.97;5013608;28;20514;-71
2022/01/21 00:55:50;;;;;;;8.85;2.42;;;;;;;-0.14;100.00;103311.09;5013414;28;20107;-71
2022/01/21 00:58:16;;;;;;;10.93;2.58;;;;;;;-0.13;100.00;103331.31;5011843;28;20065;-71
2022/01/21 01:00:41;;;;;;;10.40;2.20;;;;;;;-0.23;100.00;103322.44;5017251;28;20053;-71
2022/01/21 01:03:06;;;;;;;11.23;2.85;;;;;;;-0.29;100.00;103322.41;5011837;28;20029;-71
2022/01/21 01:05:32;;;;;;;6.65;2.65;;;;;;;-0.27;100.00;103331.22;5017968;28;20101;-71
2022/01/21 01:07:59;;;;;;;15.05;2.78;;;;;;;-0.34;100.00;103321.50;5012258;28;20549;-71
2022/01/21 01:10:40;;;;;;;6.82;2.30;;;;;;;-0.37;100.00;103330.25;5009876;28;20052;-71
2022/01/21 01:21:18;;;;;;;7.40;2.15;;;;;;;-0.29;100.00;103314.50;5017531;28;20012;-71
2022/01/21 01:29:20;;;;;;;18.27;4.32;;;;;;;-0.46;100.00;103295.88;5013562;28;20152;-71
2022/01/21 01:31:45;;;;;;;18.52;3.78;;;;;;;-0.48;100.00;103301.13;5010072;28;20113;-71
2022/01/21 01:34:11;;;;;;;7.32;2.80;;;;;;;-0.36;100.00;103310.91;5004344;28;20105;-71
2022/01/21 01:36:36;;;;;;;15.20;2.88;;;;;;;-0.44;100.00;103307.34;5008000;28;20025;-71
2022/01/21 01:41:43;;;;;;;9.25;2.90;;;;;;;-0.31;100.00;103298.63;5011813;28;20320;-71
2022/01/21 01:49:43;;;;;;;7.72;2.67;;;;;;;-0.43;100.00;103310.84;5014586;28;20040;-71
2022/01/21 01:52:14;;;;;;;12.30;2.75;;;;;;;-0.43;100.00;103310.84;5013074;28;20049;-71
2022/01/21 01:54:50;;;;;;;7.50;2.75;;;;;;;-0.47;100.00;103307.31;5010404;28;20045;-71
2022/01/21 01:57:15;;;;;;;9.80;2.72;;;;;;;-0.54;100.00;103301.09;5011413;28;20072;-71
2022/01/21 01:59:40;;;;;;;6.05;2.67;;;;;;;-0.44;100.00;103324.91;4998396;28;20124;-72
2022/01/21 02:02:16;;;;;;;9.75;3.28;;;;;;;-0.46;100.00;103324.91;4999756;28;20021;-71
2022/01/21 02:04:43;;;;;;;14.73;3.08;;;;;;;-0.50;100.00;103323.13;5014225;28;20669;-71
2022/01/21 02:07:09;;;;;;;9.82;3.45;;;;;;;-0.49;100.00;103317.84;4999220;28;20069;-71
2022/01/21 02:09:35;;;;;;;11.43;3.05;;;;;;;-0.61;100.00;103310.69;5009067;28;20439;-72
2022/01/21 02:12:01;;;;;;;11.82;3.13;;;;;;;-0.53;100.00;103316.03;5012765;28;20049;-72
2022/01/21 02:14:36;;;;;;;18.38;3.17;;;;;;;-0.63;100.00;103314.22;5013574;28;20033;-71
2022/01/21 02:22:26;;;;;;;10.07;3.15;;;;;;;-0.70;100.00;103309.72;5018857;28;20371;-72
2022/01/21 02:24:56;;;;;;;14.73;3.50;;;;;;;-0.83;100.00;103306.09;5013209;28;20057;-71
2022/01/21 02:27:21;;;;;;;13.32;3.00;;;;;;;-0.77;100.00;103316.72;5014463;28;20025;-71
2022/01/21 02:29:49;;;;;;;13.02;3.63;;;;;;;-0.76;100.00;103323.75;5017566;28;20497;-72
2022/01/21 02:32:16;;;;;;;12.73;3.80;;;;;;;-0.80;100.00;103317.59;5012525;28;20372;-71
2022/01/21 02:34:42;;;;;;;9.73;3.25;;;;;;;-0.80;100.00;103309.66;5017834;28;20384;-71
2022/01/21 02:37:09;;;;;;;16.55;3.10;;;;;;;-0.81;100.00;103317.56;4995852;28;20420;-71
2022/01/21 02:39:34;;;;;;;18.65;3.25;;;;;;;-0.88;100.00;103313.97;5022980;28;20556;-72
2022/01/21 02:41:59;;;;;;;15.82;3.30;;;;;;;-0.85;100.00;103308.72;5003337;28;20355;-71
2022/01/21 02:44:25;;;;;;;11.50;4.45;;;;;;;-0.84;100.00;103325.44;5017587;28;20073;-71
2022/01/21 02:46:55;;;;;;;9.30;3.05;;;;;;;-0.91;100.00;103309.53;5014772;28;20713;-71
2022/01/21 02:49:21;;;;;;;10.90;3.33;;;;;;;-0.87;100.00;103305.19;5001387;28;20033;-71
2022/01/21 02:51:46;;;;;;;10.95;2.80;;;;;;;-0.83;100.00;103311.38;5014358;28;20037;-71
2022/01/21 02:54:12;;;;;;;10.60;2.78;;;;;;;-0.82;100.00;103308.78;5033296;28;20060;-71
2022/01/21 02:56:39;;;;;;;9.18;2.75;;;;;;;-0.74;100.00;103318.47;5001581;28;20099;-71
2022/01/21 02:59:05;;;;;;;11.73;2.75;;;;;;;-0.78;100.00;103321.09;5013656;28;20038;-71
2022/01/21 03:01:33;;;;;;;9.77;2.33;;;;;;;-0.81;100.00;103318.44;4992796;28;20103;-71
2022/01/21 03:03:59;;;;;;;10.18;2.55;;;;;;;-0.79;100.00;103323.72;5015307;28;20068;-71
2022/01/21 03:06:25;;;;;;;14.85;2.78;;;;;;;-0.76;100.00;103323.75;4996835;28;20033;-72
2022/01/21 03:08:52;;;;;;;14.15;3.78;;;;;;;-0.83;100.00;103320.19;5004420;28;20033;-71
2022/01/21 03:11:19;;;;;;;5.05;2.53;;;;;;;-0.91;100.00;103308.66;5002210;28;20059;-71
2022/01/21 03:13:45;;;;;;;9.57;2.80;;;;;;;-0.83;100.00;103324.56;5016901;28;20069;-72
2022/01/21 03:16:11;;;;;;;11.10;2.97;;;;;;;-0.82;100.00;103321.06;5010010;28;20057;-71
2022/01/21 03:18:36;;;;;;;7.60;2.78;;;;;;;-0.92;100.00;103328.00;5012148;28;20480;-72
2022/01/21 03:21:01;;;;;;;10.05;2.78;;;;;;;-1.01;100.00;103312.97;5018302;28;20039;-71
2022/01/21 03:23:29;;;;;;;13.55;2.30;;;;;;;-0.98;100.00;103313.00;4995959;28;20033;-71
2022/01/21 03:25:54;;;;;;;6.57;3.08;;;;;;;-1.04;100.00;103318.19;5013899;28;20065;-72
2022/01/21 03:28:19;;;;;;;5.07;2.08;;;;;;;-1.09;100.00;103322.53;4998747;28;20144;-71
2022/01/21 03:30:45;;;;;;;10.98;3.00;;;;;;;-1.00;100.00;103321.75;5014381;28;20104;-71
2022/01/21 03:33:10;;;;;;;5.30;2.17;;;;;;;-1.08;100.00;103325.22;5009826;28;20030;-71
2022/01/21 03:35:36;;;;;;;9.57;2.80;;;;;;;-1.01;100.00;103338.44;5000998;28;20496;-72
2022/01/21 03:38:01;;;;;;;11.25;2.80;;;;;;;-1.08;100.00;103330.47;5010175;28;20075;-72
2022/01/21 03:40:26;;;;;;;10.45;2.22;;;;;;;-0.99;100.00;103344.63;5015708;28;20065;-72
2022/01/21 03:42:52;;;;;;;11.68;2.53;;;;;;;-1.05;100.00;103334.88;5010044;28;20061;-72
2022/01/21 03:45:17;;;;;;;11.68;2.85;;;;;;;-0.97;100.00;103342.88;5016844;28;20041;-72
2022/01/21 03:47:44;;;;;;;13.32;2.63;;;;;;;-0.98;100.00;103342.00;5002444;28;20452;-72
2022/01/21 03:52:54;;;;;;;15.43;2.70;;;;;;;-1.10;100.00;103337.50;5016456;28;20043;-72
2022/01/21 03:55:19;;;;;;;14.20;2.60;;;;;;;-1.11;100.00;103334.81;5011795;28;20025;-72
2022/01/21 03:57:45;;;;;;;12.52;2.92;;;;;;;-1.09;100.00;103344.53;5014347;28;20470;-72
2022/01/21 04:00:21;;;;;;;12.65;2.10;;;;;;;-1.13;100.00;103342.72;5013113;28;20092;-72
2022/01/21 04:02:46;;;;;;;11.23;2.10;;;;;;;-1.14;100.00;103342.69;5000141;28;20040;-72
2022/01/21 04:05:12;;;;;;;7.18;2.58;;;;;;;-1.13;100.00;103345.34;4999584;28;20033;-72
2022/01/21 04:07:37;;;;;;;7.60;2.88;;;;;;;-1.22;100.00;103334.69;5011245;28;20079;-72
2022/01/21 04:10:04;;;;;;;10.70;2.50;;;;;;;-1.23;100.00;103331.19;5014031;28;20475;-71
2022/01/21 04:12:29;;;;;;;7.03;2.22;;;;;;;-1.17;100.00;103338.28;5000680;28;20069;-72
2022/01/21 04:14:58;;;;;;;9.18;2.20;;;;;;;-1.17;100.00;103333.00;5016228;28;20497;-72
2022/01/21 04:17:23;;;;;;;7.00;2.65;;;;;;;-1.18;100.00;103323.31;5013574;28;20033;-71
2022/01/21 04:19:48;;;;;;;7.30;2.08;;;;;;;-1.22;100.00;103327.69;4992215;28;20480;-71
2022/01/21 04:22:13;;;;;;;16.30;2.70;;;;;;;-1.14;100.00;103333.03;5014933;28;20049;-71
2022/01/21 04:24:40;;;;;;;7.55;2.03;;;;;;;-1.28;100.00;103311.78;5011435;28;20025;-72
2022/01/21 04:27:05;;;;;;;9.00;2.45;;;;;;;-1.18;100.00;103330.31;5014802;28;20064;-72
2022/01/21 04:29:30;;;;;;;6.95;1.90;;;;;;;-1.21;100.00;103337.38;5011186;28;20108;-71
2022/01/21 04:31:55;;;;;;;5.00;1.98;;;;;;;-1.24;100.00;103317.97;5017315;28;20034;-71
2022/01/21 04:34:21;;;;;;;10.43;1.98;;;;;;;-1.23;100.00;103315.38;5011237;28;20040;-71
2022/01/21 04:36:46;;;;;;;12.13;2.53;;;;;;;-1.27;100.00;103308.28;5009051;28;20366;-71
2022/01/21 04:39:19;;;;;;;9.85;2.35;;;;;;;-1.26;100.00;103317.97;5010781;28;20076;-72
2022/01/21 04:49:40;;;;;;;3.90;2.05;;;;;;;-1.29;100.00;103323.19;5012483;28;20556;-71
2022/01/21 04:52:06;;;;;;;10.30;2.08;;;;;;;-1.36;100.00;103302.91;5016521;28;20025;-71
2022/01/21 04:54:35;;;;;;;5.38;1.48;;;;;;;-1.23;100.00;103325.00;5012043;28;20128;-71
2022/01/21 04:57:02;;;;;;;4.30;1.83;;;;;;;-1.36;100.00;103305.53;5016360;28;20033;-71
2022/01/21 04:59:28;;;;;;;9.75;2.08;;;;;;;-1.31;100.00;103316.13;5011137;28;20368;-71
2022/01/21 05:01:53;;;;;;;9.45;1.70;;;;;;;-1.27;100.00;103310.03;5013111;28;20030;-72
2022/01/21 05:04:19;;;;;;;13.40;2.63;;;;;;;-1.20;100.00;103309.22;5008477;28;20025;-72
2022/01/21 05:06:47;;;;;;;9.70;2.08;;;;;;;-1.19;100.00;103320.69;5009446;28;20030;-71
2022/01/21 05:09:15;;;;;;;5.95;1.58;;;;;;;-1.24;100.00;103320.59;5011119;28;20034;-72
2022/01/21 05:11:40;;;;;;;3.67;1.70;;;;;;;-1.18;100.00;103317.16;5008147;28;20163;-71
2022/01/21 05:16:48;;;;;;;5.78;1.80;;;;;;;-1.17;100.00;103322.47;5008228;28;20029;-72
2022/01/21 05:19:16;;;;;;;8.13;2.40;;;;;;;-1.10;100.00;103321.66;4996754;28;20032;-71
2022/01/21 05:21:47;;;;;;;5.95;1.92;;;;;;;-1.09;100.00;103325.16;5009151;28;20033;-72
2022/01/21 05:24:14;;;;;;;6.35;1.63;;;;;;;-1.03;100.00;103324.34;4999340;28;20021;-71
2022/01/21 05:26:41;;;;;;;13.13;2.22;;;;;;;-1.07;100.00;103323.44;4996895;28;20037;-72
2022/01/21 05:29:09;;;;;;;8.60;1.90;;;;;;;-1.07;100.00;103326.06;4996234;28;20120;-71
2022/01/21 05:31:35;;;;;;;11.63;1.95;;;;;;;-1.04;100.00;103328.75;5012216;28;20076;-72
2022/01/21 05:34:00;;;;;;;7.53;2.25;;;;;;;-1.08;100.00;103326.94;5015224;28;20041;-71
2022/01/21 05:36:30;;;;;;;9.32;2.45;;;;;;;-1.09;100.00;103314.63;5012546;28;20479;-71
2022/01/21 05:38:57;;;;;;;7.70;1.80;;;;;;;-1.11;100.00;103306.72;5000541;28;20033;-72
2022/01/21 05:41:23;;;;;;;2.60;1.65;;;;;;;-1.09;100.00;103312.88;4999063;28;20061;-72
2022/01/21 05:43:50;;;;;;;10.10;2.00;;;;;;;-1.07;100.00;103311.16;5015487;28;20040;-72
2022/01/21 05:49:15;;;;;;;8.90;1.60;;;;;;;-0.98;100.00;103310.38;4959107;28;20090;-71
2022/01/21 05:51:41;;;;;;;9.70;2.63;;;;;;;-0.92;100.00;103325.34;4999583;28;20045;-72
2022/01/21 05:54:08;;;;;;;5.60;1.90;;;;;;;-0.91;100.00;103335.03;5004148;28;20471;-72
2022/01/21 05:56:34;;;;;;;7.20;2.20;;;;;;;-0.91;100.00;103335.03;5014886;28;20029;-72
2022/01/21 05:59:00;;;;;;;5.95;1.80;;;;;;;-0.99;100.00;103332.31;5001751;28;20034;-72
2022/01/21 06:01:26;;;;;;;6.63;2.00;;;;;;;-0.96;100.00;103335.00;4997036;28;20026;-71
2022/01/21 06:03:51;;;;;;;10.18;2.17;;;;;;;-0.91;100.00;103337.69;5011402;28;20041;-72
2022/01/21 06:06:16;;;;;;;7.38;1.92;;;;;;;-0.95;100.00;103343.78;5008847;28;20033;-72
2022/01/21 06:08:42;;;;;;;7.50;2.90;;;;;;;-1.00;100.00;103325.28;5014414;28;20132;-71
2022/01/21 06:11:07;;;;;;;8.63;2.72;;;;;;;-0.98;100.00;103341.09;5005297;28;20072;-72
2022/01/21 06:13:34;;;;;;;11.13;2.13;;;;;;;-0.96;100.00;103342.00;5014586;28;20088;-71
2022/01/21 06:15:59;;;;;;;7.93;1.73;;;;;;;-0.89;100.00;103356.16;5018760;28;20033;-70
2022/01/21 06:18:25;;;;;;;3.67;1.83;;;;;;;-0.94;100.00;103350.81;4996975;28;20034;-72
2022/01/21 06:20:51;;;;;;;4.03;1.67;;;;;;;-0.93;100.00;103357.88;4998349;28;20041;-71
2022/01/21 06:23:16;;;;;;;3.92;1.63;;;;;;;-0.98;100.00;103349.94;5018169;28;20044;-71
2022/01/21 06:25:41;;;;;;;7.00;2.38;;;;;;;-0.93;100.00;103353.47;5013230;28;20034;-71
2022/01/21 06:28:07;;;;;;;1.90;1.50;;;;;;;-0.94;100.00;103356.09;5015165;28;20349;-71
2022/01/21 06:30:32;;;;;;;4.82;2.17;;;;;;;-0.92;100.00;103365.78;5013776;28;20060;-71
2022/01/21 06:32:58;;;;;;;4.10;1.50;;;;;;;-1.00;100.00;103356.03;5000895;28;20033;-72
2022/01/21 06:35:23;;;;;;;7.78;2.00;;;;;;;-1.00;100.00;103372.75;5014986;28;20447;-73
2022/01/21 06:37:48;;;;;;;3.53;2.08;;;;;;;-1.02;100.00;103366.56;5000141;28;20104;-71
2022/01/21 06:40:15;;;;;;;6.40;1.90;;;;;;;-0.97;100.00;103378.06;5013282;28;20034;-71
2022/01/21 06:42:40;;;;;;;7.72;1.80;;;;;;;-1.08;100.00;103366.50;4998665;28;20164;-71
2022/01/21 06:45:06;;;;;;;4.93;2.25;;;;;;;-0.89;100.00;103382.53;5012390;28;20033;-70
2022/01/21 06:47:32;;;;;;;10.82;3.00;;;;;;;-0.92;100.00;103370.19;5013348;28;20404;-69
2022/01/21 06:49:59;;;;;;;8.38;2.20;;;;;;;-0.82;100.00;103387.91;4997788;28;20033;-70
2022/01/21 06:52:28;;;;;;;7.43;2.13;;;;;;;-0.81;100.00;103381.75;5015575;28;20021;-70
2022/01/21 06:54:54;;;;;;;9.75;2.22;;;;;;;-0.76;100.00;103385.31;4996019;28;20113;-71
2022/01/21 06:57:20;;;;;;;8.40;2.78;;;;;;;-0.68;100.00;103395.06;5015963;28;20144;-71
2022/01/21 06:59:45;;;;;;;7.72;2.08;;;;;;;-0.73;100.00;103384.47;4993681;28;20021;-71
2022/01/21 07:02:10;;;;;;;6.43;2.00;;;;;;;-0.68;100.00;103390.69;5000351;28;20029;-72
2022/01/21 07:04:35;;;;;;;9.80;2.30;;;;;;;-0.67;100.00;103381.91;5009059;28;21905;-71
2022/01/21 07:07:01;;;;;;;3.42;2.05;;;;;;;-0.57;100.00;103390.81;5012428;28;20080;-71
2022/01/21 07:09:27;;;;;;;7.63;2.17;;;;;;;-0.56;100.00;103389.94;4990817;28;20033;-71
2022/01/21 07:11:53;;;;;;;11.98;3.13;;;;;;;-0.40;100.00;103400.63;5008086;28;20063;-71
2022/01/21 07:14:19;;;;;;;14.00;3.15;;;;;;;-0.36;100.00;103408.56;5006962;28;20037;-69
2022/01/21 07:16:45;;;;;;;14.18;2.90;;;;;;;-0.33;100.00;103399.81;5011230;28;20064;-73
2022/01/21 07:19:10;;;;;;;6.80;2.40;;;;;;;-0.22;100.00;103414.00;5000390;28;20037;-72
2022/01/21 07:21:35;;;;;;;6.90;2.42;;;;;;;-0.20;100.00;103406.97;5011710;28;20073;-74
2022/01/21 07:24:00;;;;;;;66.38;24.50;;;;;;;-0.18;100.00;103413.16;4997304;28;20164;-74
2022/01/21 07:26:26;;;;;;;92.38;29.25;;;;;;;-0.10;100.00;103405.28;4994283;28;20032;-71
2022/01/21 07:28:51;;;;;;;25.20;8.35;;;;;;;-0.01;100.00;103421.22;5011303;28;20021;-72
2022/01/21 07:31:17;;;;;;;31.73;14.93;;;;;;;-0.08;100.00;103408.81;5017035;28;20030;-73
2022/01/21 07:33:42;;;;;;;28.25;14.70;;;;;;;-0.06;100.00;103399.16;5016748;28;20100;-73
2022/01/21 07:36:07;;;;;;;15.95;8.25;;;;;;;-0.03;100.00;103406.25;5001539;28;20136;-73
2022/01/21 07:38:33;;;;;;;22.80;11.98;;;;;;;0.02;100.00;103417.69;5014036;28;20045;-73
2022/01/21 07:40:58;;;;;;;7.13;2.50;;;;;;;-0.04;100.00;103386.84;5001454;28;20057;-72
2022/01/21 07:43:24;;;;;;;7.35;2.78;;;;;;;0.04;100.00;103393.97;4996349;28;20029;-72
2022/01/21 07:45:49;;;;;;;13.20;3.67;;;;;;;-0.01;100.00;103415.06;4999042;28;20369;-73
2022/01/21 07:48:14;;;;;;;5.68;3.75;;;;;;;-0.05;100.00;103405.34;5012144;28;20088;-73
2022/01/21 07:50:40;;;;;;;5.40;2.75;;;;;;;-0.05;100.00;103393.00;5011796;28;20116;-73
2022/01/21 07:53:05;;;;;;;8.95;2.72;;;;;;;0.09;100.00;103400.16;5003155;28;20076;-73
2022/01/21 07:55:31;;;;;;;10.30;2.65;;;;;;;0.20;100.00;103401.09;5010858;28;20025;-73
2022/01/21 07:57:56;;;;;;;11.43;2.80;;;;;;;0.31;100.00;103395.88;5014029;28;20417;-73
2022/01/21 08:00:21;;;;;;;14.50;3.30;;;;;;;0.46;100.00;103389.81;4998249;28;20555;-73
2022/01/21 08:02:47;;;;;;;8.90;2.72;;;;;;;0.66;100.00;103405.78;4996614;28;20041;-72
2022/01/21 08:05:12;;;;;;;7.35;2.67;;;;;;;0.79;100.00;103395.28;5016926;28;20037;-73
2022/01/21 08:07:38;;;;;;;9.02;2.60;;;;;;;1.09;100.00;103399.81;4998720;28;20128;-71
2022/01/21 08:10:04;;;;;;;4.43;2.67;;;;;;;1.19;100.00;103396.28;5017485;28;20044;-72
2022/01/21 08:12:29;;;;;;;6.40;2.70;;;;;;;1.26;100.00;103380.44;5014483;28;20044;-72
2022/01/21 08:14:55;;;;;;;8.68;3.17;;;;;;;1.30;100.00;103395.44;5014049;28;20391;-72
2022/01/21 08:17:20;;;;;;;4.78;2.53;;;;;;;1.45;100.00;103395.50;5013584;28;20124;-72
2022/01/21 08:19:46;;;;;;;9.18;2.78;;;;;;;1.49;100.00;103376.06;5020656;28;20204;-72
2022/01/21 08:22:11;;;;;;;6.85;2.78;;;;;;;1.55;100.00;103388.44;4992073;28;20049;-72
2022/01/21 08:24:37;;;;;;;5.75;2.58;;;;;;;1.49;100.00;103386.66;5011714;28;20029;-72
2022/01/21 08:27:02;;;;;;;12.23;3.17;;;;;;;1.57;100.00;103397.28;4998701;28;20044;-72
2022/01/21 08:29:28;;;;;;;4.13;1.95;;;;;;;1.45;100.00;103394.59;5020587;28;20718;-72
2022/01/21 08:31:54;;;;;;;10.77;3.35;;;;;;;1.37;100.00;103405.19;5015223;28;20109;-72
2022/01/21 08:34:20;;;;;;;5.57;3.08;;;;;;;1.57;100.00;103409.63;5013563;28;20021;-73
2022/01/21 08:36:46;;;;;;;5.38;2.58;;;;;;;1.64;100.00;103403.44;5000490;28;20036;-73
2022/01/21 08:39:13;;;;;;;4.88;2.78;;;;;;;1.73;100.00;103410.53;5017469;28;20030;-73
2022/01/21 08:41:38;;;;;;;6.03;2.75;;;;;;;1.90;100.00;103419.34;4999960;28;20083;-72
2022/01/21 08:44:04;;;;;;;7.53;3.30;;;;;;;2.12;100.00;103411.38;5000216;28;20455;-72
2022/01/21 08:46:30;;;;;;;4.55;2.55;;;;;;;2.19;100.00;103409.63;5019447;28;20029;-71
2022/01/21 08:48:55;;;;;;;4.90;2.55;;;;;;;2.17;100.00;103403.44;5010224;28;20038;-72
2022/01/21 08:51:26;;;;;;;4.53;2.33;;;;;;;1.98;100.00;103398.16;5015825;28;20022;-72
2022/01/21 08:53:51;;;;;;;5.85;2.70;;;;;;;2.06;100.00;103396.38;5009963;28;20029;-72
2022/01/21 08:56:18;;;;;;;8.15;3.00;;;;;;;1.86;100.00;103384.91;5003770;28;20509;-72
2022/01/21 08:58:45;;;;;;;7.07;3.03;;;;;;;1.80;100.00;103386.66;4998123;28;21058;-73
2022/01/21 09:01:11;;;;;;;9.52;3.53;;;;;;;1.99;100.00;103384.00;5013383;28;20029;-72
2022/01/21 09:03:37;;;;;;;13.10;4.97;;;;;;;2.30;100.00;103380.44;5011694;28;20038;-72
2022/01/21 09:06:03;;;;;;;45.05;16.38;;;;;;;2.30;100.00;103385.75;5003913;28;20104;-72
2022/01/21 09:08:30;;;;;;;12.25;3.42;;;;;;;2.36;100.00;103383.97;4993108;28;20608;-71
2022/01/21 09:10:57;;;;;;;23.63;5.20;;;;;;;2.47;100.00;103389.22;5018080;28;20597;-72
2022/01/21 09:13:23;;;;;;;9.25;4.22;;;;;;;2.53;100.00;103390.97;4997951;28;20072;-73
2022/01/21 09:15:49;;;;;;;5.57;2.72;;;;;;;2.81;100.00;103394.44;5013119;28;20022;-72
2022/01/21 09:18:18;;;;;;;12.43;3.10;;;;;;;2.96;100.00;103387.28;5012656;28;20033;-73
2022/01/21 09:20:44;;;;;;;8.98;3.15;;;;;;;3.21;100.00;103397.75;5013489;28;20061;-74
2022/01/21 09:23:09;;;;;;;10.40;4.15;;;;;;;3.58;100.00;103400.19;5015248;28;20144;-72
2022/01/21 09:25:35;;;;;;;10.05;3.10;;;;;;;3.90;98.83;103399.94;5009448;28;20479;-72
2022/01/21 09:28:01;;;;;;;6.68;2.72;;;;;;;4.05;97.37;103382.97;5019260;28;20037;-71
2022/01/21 09:30:26;;;;;;;10.32;3.22;;;;;;;4.21;96.55;103401.44;5015937;28;20061;-72
2022/01/21 09:32:52;;;;;;;7.50;2.30;;;;;;;4.66;95.39;103411.59;5019660;28;20061;-72
2022/01/21 09:35:17;;;;;;;9.50;2.25;;;;;;;4.90;93.78;103405.09;5015289;28;20380;-71
2022/01/21 09:37:43;;;;;;;8.05;2.42;;;;;;;4.95;91.23;103400.59;5019257;28;20037;-71
2022/01/21 09:40:09;;;;;;;12.63;3.38;;;;;;;5.13;92.03;103398.59;5017005;28;20060;-70
2022/01/21 09:42:35;;;;;;;7.50;2.58;;;;;;;5.54;90.42;103404.22;5017934;28;20068;-71
2022/01/21 09:45:08;;;;;;;12.68;2.63;;;;;;;5.82;88.54;103403.78;5013944;28;20570;-72
2022/01/21 09:47:43;;;;;;;5.15;2.03;;;;;;;6.13;85.43;103404.16;5005086;28;20037;-72
2022/01/21 09:50:09;;;;;;;7.40;1.92;;;;;;;6.64;82.93;103399.63;5017175;28;20029;-71
2022/01/21 09:52:36;;;;;;;7.45;2.30;;;;;;;7.23;80.87;103413.56;5020079;28;20360;-71
2022/01/21 09:55:02;;;;;;;7.38;1.98;;;;;;;7.71;82.61;103405.31;5017541;28;20494;-71
2022/01/21 09:57:27;;;;;;;9.43;2.25;;;;;;;8.02;77.81;103409.88;5019202;28;20112;-71
2022/01/21 09:59:53;;;;;;;7.38;2.63;;;;;;;8.26;76.59;103428.88;5000549;28;20045;-72
2022/01/21 10:02:20;;;;;;;8.10;2.28;;;;;;;8.08;76.38;103428.44;5019608;28;20035;-72
2022/01/21 10:04:49;;;;;;;4.47;2.33;;;;;;;8.37;77.12;103424.09;5020634;28;20712;-72
2022/01/21 10:07:18;;;;;;;8.20;2.15;;;;;;;8.47;76.68;103426.53;5014184;28;20029;-72
2022/01/21 10:09:48;;;;;;;13.27;2.72;;;;;;;8.66;73.99;103430.50;5006572;28;20098;-71
2022/01/21 10:12:14;;;;;;;5.55;2.20;;;;;;;8.80;74.48;103435.47;5003784;28;20044;-72
2022/01/21 10:14:40;;;;;;;4.53;2.38;;;;;;;9.10;75.29;103430.13;5017395;28;20594;-72
2022/01/21 10:17:06;;;;;;;10.15;1.95;;;;;;;9.40;71.52;103440.84;4996581;28;20036;-72
2022/01/21 10:19:33;;;;;;;8.75;2.10;;;;;;;9.20;70.68;103438.75;5021557;28;20065;-71
2022/01/21 10:22:03;;;;;;;6.00;2.45;;;;;;;10.07;72.29;103441.34;5005841;28;20038;-72
2022/01/21 10:24:30;;;;;;;7.10;2.60;;;;;;;9.75;68.21;103424.53;5010077;28;20088;-72
2022/01/21 10:26:56;;;;;;;7.95;2.13;;;;;;;9.59;68.93;103430.41;5014570;28;20033;-72
2022/01/21 10:29:23;;;;;;;8.50;2.00;;;;;;;9.85;70.27;103434.03;5018665;28;20082;-73
2022/01/21 10:31:57;;;;;;;9.60;2.08;;;;;;;10.13;68.90;103440.25;5015787;28;20038;-72
2022/01/21 10:34:25;;;;;;;11.13;2.22;;;;;;;9.98;68.36;103431.81;5015228;28;20037;-72
2022/01/21 10:36:55;;;;;;;17.13;2.40;;;;;;;9.52;69.89;103449.44;5003864;28;20364;-72
2022/01/21 10:39:29;;;;;;;7.75;2.00;;;;;;;8.77;72.87;103440.03;5014982;28;20467;-72
2022/01/21 10:41:57;;;;;;;7.93;2.58;;;;;;;9.36;71.33;103436.47;4996232;28;20147;-74
2022/01/21 10:44:25;;;;;;;19.25;2.95;;;;;;;8.12;74.13;103429.25;5004509;28;20034;-72
2022/01/21 10:47:09;;;;;;;9.85;2.83;;;;;;;8.06;76.10;103426.72;5013861;28;20030;-72
2022/01/21 10:49:39;;;;;;;15.73;2.97;;;;;;;8.25;76.55;103433.34;5018758;28;20167;-72
2022/01/21 10:52:06;;;;;;;9.48;2.00;;;;;;;8.19;75.94;103421.94;5002954;28;20029;-73
2022/01/21 10:54:31;;;;;;;11.68;2.30;;;;;;;8.30;75.80;103408.25;4997547;28;20370;-73
2022/01/21 10:57:17;;;;;;;31.98;8.00;;;;;;;8.02;76.27;103407.22;5017414;28;20148;-72
2022/01/21 10:59:43;;;;;;;8.07;3.03;;;;;;;7.33;79.92;103399.97;5015008;28;20034;-72
2022/01/21 11:02:09;;;;;;;10.43;2.58;;;;;;;7.08;80.29;103393.41;5017304;28;20465;-72
2022/01/21 11:04:40;;;;;;;11.68;3.53;;;;;;;6.79;82.11;103397.59;4998259;28;20041;-73
2022/01/21 11:07:05;;;;;;;6.30;2.67;;;;;;;6.66;83.97;103394.28;5014542;28;20025;-73
2022/01/21 11:09:31;;;;;;;26.40;9.70;;;;;;;6.78;84.72;103396.69;5015805;28;20029;-72
2022/01/21 11:12:07;;;;;;;31.10;9.63;;;;;;;7.51;83.16;103376.38;5014604;28;20029;-71
2022/01/21 11:14:34;;;;;;;20.08;4.03;;;;;;;8.38;79.94;103395.56;5016720;28;20144;-72
2022/01/21 11:17:08;;;;;;;17.30;6.70;;;;;;;7.87;79.63;103379.06;5001825;28;20482;-73
2022/01/21 11:19:35;;;;;;;13.35;2.30;;;;;;;7.50;80.54;103374.59;5008889;28;20037;-73
2022/01/21 11:22:04;;;;;;;6.47;1.80;;;;;;;7.41;82.07;103372.19;5014082;28;20042;-72
2022/01/21 11:24:29;;;;;;;11.80;2.70;;;;;;;6.79;85.60;103381.56;5015481;28;21226;-74
2022/01/21 11:27:05;;;;;;;9.00;2.40;;;;;;;6.66;86.36;103372.94;5006533;28;20029;-74
2022/01/21 11:29:31;;;;;;;7.57;3.80;;;;;;;6.54;87.42;103385.59;5015854;28;20029;-73
2022/01/21 11:31:56;;;;;;;10.05;2.65;;;;;;;6.29;88.32;103379.88;5001476;28;20596;-72
2022/01/21 11:34:22;;;;;;;7.80;3.58;;;;;;;6.31;89.77;103380.72;5003727;28;20878;-72
2022/01/21 11:36:47;;;;;;;5.35;2.90;;;;;;;6.25;90.96;103383.50;5006693;28;20199;-74
2022/01/21 11:39:13;;;;;;;10.20;2.60;;;;;;;6.19;90.99;103384.50;5015974;28;20098;-71
2022/01/21 11:41:40;;;;;;;6.60;4.90;;;;;;;6.41;90.94;103390.28;4997522;28;20415;-73
2022/01/21 11:44:07;;;;;;;17.30;3.10;;;;;;;6.32;91.67;103382.50;5012588;28;20102;-74
2022/01/21 11:49:03;;;;;;;6.60;2.53;;;;;;;6.33;91.56;103383.34;5014291;28;20120;-74
2022/01/21 11:51:34;;;;;;;9.93;2.17;;;;;;;6.21;93.29;103382.69;4997927;28;20033;-75
2022/01/21 11:54:05;;;;;;;7.78;1.45;;;;;;;6.17;92.93;103378.31;5014959;28;20048;-73
2022/01/21 11:56:43;;;;;;;3.53;1.60;;;;;;;6.23;92.79;103379.97;5016008;28;20037;-75
2022/01/21 11:59:31;;;;;;;6.93;1.80;;;;;;;6.38;92.13;103374.34;5017200;28;20478;-73
2022/01/21 12:01:56;;;;;;;6.28;2.40;;;;;;;6.28;93.38;103370.97;5003550;28;20033;-73
2022/01/21 12:04:31;;;;;;;16.58;2.90;;;;;;;6.30;93.37;103361.16;5003781;28;20418;-74
2022/01/21 12:07:00;;;;;;;13.40;6.43;;;;;;;6.22;93.80;103364.88;5010132;28;20481;-77
2022/01/21 12:09:53;;;;;;;16.52;6.40;;;;;;;6.17;93.00;103353.41;5011791;28;20459;-74
2022/01/21 12:12:19;;;;;;;11.18;4.15;;;;;;;5.99;94.44;103348.34;5012951;28;20033;-76
2022/01/21 12:14:50;;;;;;;8.48;2.78;;;;;;;5.61;96.24;103347.25;5014299;28;20332;-74